Time;durP1;ratioP1;P1;durP2;ratioP2;P2;SDS_P1;SDS_P2;PMS_P1;PMS_P2;Temp;Humidity;BMP_temperature;BMP_pressure;BME280_temperature;BME280_humidity;BME280_pressure;Samples;Min_cycle;Max_cycle;Signal;HPM_P1;HPM_P2
2022/08/04 17:07:47;;;;;;;6.40;2.83;;;;;;;;;;5126578;27;20846;-69
2022/08/04 17:10:13;;;;;;;2.35;1.75;;;;;;;;;;5109834;27;20080;-69
2022/08/04 17:12:40;;;;;;;7.25;2.85;;;;;;;;;;5099405;27;20058;-69
2022/08/04 17:15:22;;;;;;;3.53;1.65;;;;;;;;;;5107772;27;20062;-69
2022/08/04 17:17:49;;;;;;;5.45;1.95;;;;;;;;;;5107769;28;20055;-69
2022/08/04 17:20:38;;;;;;;2.95;1.70;;;;;;;;;;5106817;28;20470;-69
2022/08/04 17:23:24;;;;;;;3.40;1.48;;;;;;;;;;5111145;27;20056;-69
2022/08/04 17:26:12;;;;;;;3.92;1.65;;;;;;;;;;5098235;27;20056;-69
2022/08/04 17:28:41;;;;;;;4.68;1.77;;;;;;;;;;5107918;27;20079;-69
2022/08/04 17:31:13;;;;;;;3.92;1.30;;;;;;;;;;5109882;27;20052;-69
2022/08/04 17:33:43;;;;;;;3.13;1.70;;;;;;;;;;5107666;27;20083;-70
2022/08/04 17:36:27;;;;;;;1.95;1.42;;;;;;;;;;5104414;28;20084;-69
2022/08/04 17:38:55;;;;;;;5.97;1.25;;;;;;;;;;5107334;28;20052;-69
2022/08/04 17:41:23;;;;;;;4.85;1.42;;;;;;;;;;5102697;27;20056;-69
2022/08/04 17:43:58;;;;;;;7.43;1.75;;;;;;;;;;5096215;28;20159;-69
2022/08/04 17:46:35;;;;;;;2.60;1.67;;;;;;;;;;5105922;27;20056;-69
2022/08/04 17:49:05;;;;;;;2.10;1.60;;;;;;;;;;5106140;27;20106;-69
2022/08/04 17:51:51;;;;;;;2.65;1.50;;;;;;;;;;5107285;27;20062;-69
2022/08/04 17:54:30;;;;;;;3.17;1.40;;;;;;;;;;5107222;28;20110;-69
2022/08/04 17:57:12;;;;;;;3.08;1.40;;;;;;;;;;5111111;27;20056;-69
2022/08/04 17:59:40;;;;;;;3.20;1.50;;;;;;;;;;5099718;27;20053;-70
2022/08/04 18:02:26;;;;;;;2.65;1.50;;;;;;;;;;5097355;27;20496;-69
2022/08/04 18:04:59;;;;;;;3.85;1.52;;;;;;;;;;5101841;27;20464;-70
2022/08/04 18:07:47;;;;;;;2.80;1.58;;;;;;;;;;5101461;27;20059;-67
2022/08/04 18:10:35;;;;;;;2.70;1.42;;;;;;;;;;5107081;27;20463;-68
2022/08/04 18:13:11;;;;;;;2.67;1.40;;;;;;;;;;5104030;27;20056;-68
2022/08/04 18:15:39;;;;;;;3.05;1.60;;;;;;;;;;5101995;27;20075;-69
2022/08/04 18:18:19;;;;;;;3.65;1.20;;;;;;;;;;5097240;28;20060;-68
2022/08/04 18:20:49;;;;;;;2.90;1.35;;;;;;;;;;5092435;28;20504;-69
2022/08/04 18:23:15;;;;;;;3.75;2.00;;;;;;;;;;5088078;28;20075;-68
2022/08/04 18:25:46;;;;;;;2.72;1.30;;;;;;;;;;5094222;28;20444;-68
2022/08/04 18:28:17;;;;;;;2.15;0.90;;;;;;;;;;5089368;28;20053;-68
2022/08/04 18:30:55;;;;;;;2.70;1.60;;;;;;;;;;5077102;28;20138;-68
2022/08/04 18:33:21;;;;;;;3.75;1.20;;;;;;;;;;5093646;28;20049;-68
2022/08/04 18:36:09;;;;;;;3.08;1.27;;;;;;;;;;5093682;28;20049;-67
2022/08/04 18:38:57;;;;;;;3.13;1.30;;;;;;;;;;5093360;28;20069;-67
2022/08/04 18:41:39;;;;;;;3.42;1.38;;;;;;;;;;5093641;28;20055;-67
2022/08/04 18:44:27;;;;;;;2.03;1.23;;;;;;;;;;5092560;28;20048;-67
2022/08/04 18:46:55;;;;;;;3.15;1.27;;;;;;;;;;5090141;28;20405;-68
2022/08/04 18:49:22;;;;;;;3.95;1.55;;;;;;;;;;5094073;28;20048;-68
2022/08/04 18:52:09;;;;;;;6.75;1.58;;;;;;;;;;5086997;28;20411;-68
2022/08/04 18:54:43;;;;;;;4.40;1.67;;;;;;;;;;5089266;28;20191;-69
2022/08/04 18:57:09;;;;;;;5.18;2.17;;;;;;;;;;5092355;28;20075;-69
2022/08/04 18:59:55;;;;;;;6.45;1.90;;;;;;;;;;5090312;28;20052;-68
2022/08/04 19:02:22;;;;;;;2.63;1.48;;;;;;;;;;5110193;28;20056;-68
2022/08/04 19:04:53;;;;;;;5.10;1.80;;;;;;;;;;5077659;28;20578;-69
2022/08/04 19:07:24;;;;;;;2.75;1.52;;;;;;;;;;5094173;28;20551;-68
2022/08/04 19:10:10;;;;;;;3.30;1.45;;;;;;;;;;5095078;28;20055;-69
2022/08/04 19:12:52;;;;;;;4.72;1.95;;;;;;;;;;5088280;28;20139;-68
2022/08/04 19:15:18;;;;;;;9.90;1.90;;;;;;;;;;5093171;28;20139;-68
2022/08/04 19:17:59;;;;;;;5.07;1.95;;;;;;;;;;5091918;28;20071;-68
2022/08/04 19:20:27;;;;;;;4.40;1.48;;;;;;;;;;5088991;28;20053;-68
2022/08/04 19:22:55;;;;;;;4.80;1.67;;;;;;;;;;5091354;28;20058;-68
2022/08/04 19:25:42;;;;;;;4.88;1.70;;;;;;;;;;5087424;28;20051;-69
2022/08/04 19:28:29;;;;;;;3.85;1.85;;;;;;;;;;5083663;28;20049;-68
2022/08/04 19:31:00;;;;;;;5.10;1.70;;;;;;;;;;5090791;28;20044;-67
2022/08/04 19:33:28;;;;;;;3.60;1.48;;;;;;;;;;5094251;28;20135;-68
2022/08/04 19:36:15;;;;;;;6.63;1.88;;;;;;;;;;5085542;28;20898;-69
2022/08/04 19:38:42;;;;;;;4.78;1.63;;;;;;;;;;5102896;28;20097;-69
2022/08/04 19:41:11;;;;;;;6.70;1.88;;;;;;;;;;5093339;28;20140;-69
2022/08/04 19:43:40;;;;;;;3.92;1.80;;;;;;;;;;5091663;28;20109;-70
2022/08/04 19:46:09;;;;;;;4.85;1.80;;;;;;;;;;5083132;28;20044;-69
2022/08/04 19:48:37;;;;;;;2.85;1.80;;;;;;;;;;5097022;28;20476;-69
2022/08/04 19:51:04;;;;;;;4.75;1.70;;;;;;;;;;5080205;28;20052;-69
2022/08/04 19:53:32;;;;;;;9.25;2.40;;;;;;;;;;5092022;28;20064;-69
2022/08/04 19:56:03;;;;;;;3.75;1.80;;;;;;;;;;5087573;28;20061;-69
2022/08/04 19:58:37;;;;;;;5.90;2.20;;;;;;;;;;5093338;28;20507;-69
2022/08/04 20:01:03;;;;;;;7.43;2.17;;;;;;;;;;5088202;28;20048;-69
2022/08/04 20:03:49;;;;;;;3.20;1.98;;;;;;;;;;5089172;28;20049;-69
2022/08/04 20:06:36;;;;;;;3.47;1.65;;;;;;;;;;5091123;28;20060;-69
2022/08/04 20:09:02;;;;;;;3.38;1.80;;;;;;;;;;5096613;28;20056;-68
2022/08/04 20:11:49;;;;;;;3.25;1.77;;;;;;;;;;5090154;27;20048;-69
2022/08/04 20:14:18;;;;;;;6.90;2.22;;;;;;;;;;5090734;27;20052;-69
2022/08/04 20:16:57;;;;;;;3.45;1.67;;;;;;;;;;5103832;27;20111;-69
2022/08/04 20:19:24;;;;;;;5.30;2.15;;;;;;;;;;5090725;27;20097;-69
2022/08/04 20:21:52;;;;;;;5.72;2.28;;;;;;;;;;5105556;28;20055;-69
2022/08/04 20:24:23;;;;;;;4.90;2.08;;;;;;;;;;5108014;27;20895;-69
2022/08/04 20:27:07;;;;;;;5.45;1.85;;;;;;;;;;5093116;27;20132;-69
2022/08/04 20:29:42;;;;;;;5.22;2.08;;;;;;;;;;5096393;28;20056;-70
2022/08/04 20:32:14;;;;;;;6.65;2.10;;;;;;;;;;5093451;27;20143;-69
2022/08/04 20:34:40;;;;;;;5.47;2.42;;;;;;;;;;5105310;28;20052;-69
2022/08/04 20:37:07;;;;;;;6.50;2.08;;;;;;;;;;5094933;27;20052;-68
2022/08/04 20:39:38;;;;;;;4.40;1.85;;;;;;;;;;5089902;27;20103;-69
2022/08/04 20:42:05;;;;;;;5.47;1.90;;;;;;;;;;5079809;28;20500;-69
2022/08/04 20:44:36;;;;;;;4.45;2.22;;;;;;;;;;5088110;28;20060;-68
2022/08/04 20:47:07;;;;;;;5.13;2.10;;;;;;;;;;5092594;28;20059;-69
2022/08/04 20:49:33;;;;;;;4.30;1.77;;;;;;;;;;5092938;28;20055;-68
2022/08/04 20:52:02;;;;;;;5.00;1.70;;;;;;;;;;5084415;28;20060;-69
2022/08/04 20:54:44;;;;;;;6.15;3.30;;;;;;;;;;5072240;28;20152;-69
2022/08/04 20:57:14;;;;;;;5.55;1.92;;;;;;;;;;5081299;28;20109;-68
2022/08/04 21:00:00;;;;;;;9.93;2.72;;;;;;;;;;5081996;27;20049;-69
2022/08/04 21:02:30;;;;;;;6.70;2.10;;;;;;;;;;5091672;28;20057;-69
2022/08/04 21:04:56;;;;;;;5.65;1.88;;;;;;;;;;5089599;28;20135;-69
2022/08/04 21:07:23;;;;;;;4.10;1.70;;;;;;;;;;5091258;28;20133;-69
2022/08/04 21:09:50;;;;;;;4.32;2.22;;;;;;;;;;5089484;28;20053;-69
2022/08/04 21:12:18;;;;;;;6.07;2.47;;;;;;;;;;5091514;28;20056;-69
2022/08/04 21:14:55;;;;;;;4.63;1.80;;;;;;;;;;5091601;28;20048;-69
2022/08/04 21:17:22;;;;;;;6.93;2.50;;;;;;;;;;5092071;28;20114;-70
2022/08/04 21:20:09;;;;;;;5.82;2.33;;;;;;;;;;5088726;27;20057;-68
2022/08/04 21:22:38;;;;;;;7.00;2.28;;;;;;;;;;5091585;28;20067;-68
2022/08/04 21:25:06;;;;;;;6.07;2.00;;;;;;;;;;5106225;28;20052;-68
2022/08/04 21:27:32;;;;;;;5.07;2.05;;;;;;;;;;5087469;28;20055;-69
2022/08/04 21:30:04;;;;;;;10.73;2.95;;;;;;;;;;5086962;27;20573;-68
2022/08/04 21:32:49;;;;;;;5.15;2.40;;;;;;;;;;5090853;28;20057;-69
2022/08/04 21:35:17;;;;;;;8.88;2.78;;;;;;;;;;5089502;28;20113;-69
2022/08/04 21:37:44;;;;;;;5.30;2.78;;;;;;;;;;5090950;28;20048;-68
2022/08/04 21:40:30;;;;;;;6.78;2.17;;;;;;;;;;5082474;28;20059;-69
2022/08/04 21:43:03;;;;;;;7.85;2.55;;;;;;;;;;5090568;28;20049;-68
2022/08/04 21:45:32;;;;;;;9.10;2.80;;;;;;;;;;5097806;27;20064;-68
2022/08/04 21:48:02;;;;;;;4.38;2.00;;;;;;;;;;5080431;28;20507;-69
2022/08/04 21:50:29;;;;;;;6.32;2.30;;;;;;;;;;5089269;28;20063;-68
2022/08/04 21:52:56;;;;;;;5.75;1.88;;;;;;;;;;5097009;28;20517;-68
2022/08/04 21:55:24;;;;;;;8.63;2.42;;;;;;;;;;5090816;27;20494;-68
2022/08/04 21:58:10;;;;;;;6.25;2.08;;;;;;;;;;5093432;28;20052;-68
2022/08/04 22:00:38;;;;;;;10.05;2.65;;;;;;;;;;5094359;28;20064;-67
2022/08/04 22:03:05;;;;;;;8.15;2.80;;;;;;;;;;5089983;28;20052;-66
2022/08/04 22:05:43;;;;;;;7.43;2.15;;;;;;;;;;5086381;28;20136;-68
2022/08/04 22:08:10;;;;;;;9.45;3.15;;;;;;;;;;5091571;28;20055;-67
2022/08/04 22:10:48;;;;;;;4.53;2.45;;;;;;;;;;5093427;28;20068;-67
2022/08/04 22:13:14;;;;;;;5.80;2.03;;;;;;;;;;5091256;28;20052;-68
2022/08/04 22:15:48;;;;;;;5.32;2.13;;;;;;;;;;5097541;28;20049;-67
2022/08/04 22:18:30;;;;;;;4.97;2.00;;;;;;;;;;5092224;27;20144;-67
2022/08/04 22:21:02;;;;;;;5.10;1.88;;;;;;;;;;5089651;28;20084;-67
2022/08/04 22:23:29;;;;;;;6.50;2.72;;;;;;;;;;5081098;28;20135;-68
2022/08/04 22:26:17;;;;;;;10.60;2.33;;;;;;;;;;5091330;28;20060;-67
2022/08/04 22:28:45;;;;;;;8.60;2.80;;;;;;;;;;5093758;28;20053;-68
2022/08/04 22:31:15;;;;;;;10.65;3.13;;;;;;;;;;5086398;28;20056;-68
2022/08/04 22:33:52;;;;;;;6.35;2.17;;;;;;;;;;5081291;27;20053;-67
2022/08/04 22:36:21;;;;;;;6.35;2.42;;;;;;;;;;5090587;28;20484;-68
2022/08/04 22:38:50;;;;;;;5.25;2.13;;;;;;;;;;5095275;28;20060;-68
2022/08/04 22:41:31;;;;;;;5.85;2.10;;;;;;;;;;5087417;28;20131;-68
2022/08/04 22:44:14;;;;;;;6.85;2.30;;;;;;;;;;5105754;27;20135;-68
2022/08/04 22:46:41;;;;;;;7.82;3.15;;;;;;;;;;5094428;28;20164;-68
2022/08/04 22:49:07;;;;;;;4.57;2.72;;;;;;;;;;5095136;28;20069;-67
2022/08/04 22:51:34;;;;;;;7.47;2.95;;;;;;;;;;5102093;27;20480;-67
2022/08/04 22:54:00;;;;;;;5.53;2.20;;;;;;;;;;5091950;27;20563;-68
2022/08/04 22:56:36;;;;;;;4.57;2.03;;;;;;;;;;5096818;28;20072;-67
2022/08/04 22:59:05;;;;;;;5.13;2.25;;;;;;;;;;5093234;28;20053;-67
2022/08/04 23:01:34;;;;;;;7.75;2.47;;;;;;;;;;5081237;28;20052;-69
2022/08/04 23:04:20;;;;;;;5.10;2.33;;;;;;;;;;5087888;28;20061;-68
2022/08/04 23:06:48;;;;;;;6.22;2.45;;;;;;;;;;5075537;28;20060;-68
2022/08/04 23:09:15;;;;;;;6.53;2.42;;;;;;;;;;5096977;28;20238;-68
2022/08/04 23:11:42;;;;;;;7.07;2.10;;;;;;;;;;5083705;28;20423;-68
2022/08/04 23:14:09;;;;;;;6.60;2.78;;;;;;;;;;5088313;28;20580;-68
2022/08/04 23:16:36;;;;;;;8.65;3.03;;;;;;;;;;5091164;28;20144;-68
2022/08/04 23:19:07;;;;;;;6.65;2.60;;;;;;;;;;5091816;28;20052;-68
2022/08/04 23:21:35;;;;;;;11.32;3.03;;;;;;;;;;5080862;28;20056;-68
2022/08/04 23:24:06;;;;;;;15.27;2.97;;;;;;;;;;5084841;28;20052;-68
2022/08/04 23:26:34;;;;;;;7.40;2.83;;;;;;;;;;5088154;28;20156;-68
2022/08/04 23:29:01;;;;;;;8.43;2.92;;;;;;;;;;5091526;28;20052;-68
2022/08/04 23:31:29;;;;;;;11.07;3.38;;;;;;;;;;5081748;28;20060;-68
2022/08/04 23:34:13;;;;;;;11.60;2.95;;;;;;;;;;5091327;28;20087;-68
2022/08/04 23:36:43;;;;;;;7.63;2.67;;;;;;;;;;5091074;28;21221;-68
2022/08/04 23:39:12;;;;;;;5.43;2.13;;;;;;;;;;5090556;28;20574;-68
2022/08/04 23:41:39;;;;;;;6.47;2.55;;;;;;;;;;5090342;28;20060;-68
2022/08/04 23:44:20;;;;;;;8.55;3.33;;;;;;;;;;5083659;28;20136;-69
2022/08/04 23:47:00;;;;;;;5.10;2.50;;;;;;;;;;5081550;28;20052;-69
2022/08/04 23:49:27;;;;;;;6.25;2.42;;;;;;;;;;5092109;28;20559;-69
2022/08/04 23:52:11;;;;;;;6.13;2.17;;;;;;;;;;5084865;28;20109;-68
2022/08/04 23:54:55;;;;;;;8.55;2.15;;;;;;;;;;5091130;28;20818;-67
2022/08/04 23:57:23;;;;;;;8.00;1.95;;;;;;;;;;5089399;28;20590;-68
2022/08/04 23:59:52;;;;;;;9.45;2.55;;;;;;;;;;5099480;28;20059;-68
